This is the latest recevied weather packets stored in our database for station/object KC1IUC-15. If no packets are shown the sender has not sent any weather packets the latest 10 day(s).
| Time | Temp. | Humidity | Pressure | Rain* | Wind** | Luminosity | Snow |
|---|---|---|---|---|---|---|---|
| 1778013603 | 23.33° C | 50% | 1006.9 hPa | 0 mm | - | 235 W/m² | - |
| 1778013303 | 23.89° C | 49% | 1006.5 hPa | 0 mm | - | 200 W/m² | - |
| 1778013003 | 23.89° C | 47% | 1007.2 hPa | 0 mm | - | 299 W/m² | - |
| 1778012703 | 24.44° C | 46% | 1006.5 hPa | 0 mm | - | 315 W/m² | - |
| 1778012403 | 24.44° C | 49% | 1006.9 hPa | 0 mm | - | 355 W/m² | - |
| 1778012103 | 24.44° C | 48% | 1006.5 hPa | 0 mm | - | 386 W/m² | - |
| 1778011804 | 24.44° C | 47% | 1006.9 hPa | 0 mm | - | 405 W/m² | - |
| 1778011503 | 24.44° C | 47% | 1006.9 hPa | 0 mm | - | 418 W/m² | - |
| 1778011203 | 24.44° C | 46% | 1006.9 hPa | 0 mm | - | 422 W/m² | - |
| 1778010903 | 24.44° C | 46% | 1006.9 hPa | 0 mm | - | 432 W/m² | - |
| 1778010603 | 25° C | 45% | 1007.2 hPa | 0 mm | - | 455 W/m² | - |
| 1778010303 | 25° C | 46% | 1007.2 hPa | 0 mm | - | 463 W/m² | - |
| 1778010003 | 25° C | 46% | 1007.2 hPa | 0 mm | - | 489 W/m² | - |
| 1778009703 | 25° C | 45% | 1007.2 hPa | 0 mm | - | 504 W/m² | - |
| 1778009403 | 25° C | 46% | 1007.2 hPa | 0 mm | - | 521 W/m² | - |
| 1778009103 | 25° C | 46% | 1007.2 hPa | 0 mm | - | 535 W/m² | - |
| 1778008803 | 25° C | 46% | 1007.2 hPa | 0 mm | - | 545 W/m² | - |
| 1778008503 | 25° C | 46% | 1007.2 hPa | 0 mm | - | 555 W/m² | - |
| 1778008203 | 25° C | 46% | 1007.2 hPa | 0 mm | - | 556 W/m² | - |
| 1778007903 | 25.56° C | 45% | 1007.5 hPa | 0 mm | - | 576 W/m² | - |
| 1778007603 | 25° C | 46% | 1007.5 hPa | 0 mm | - | 578 W/m² | - |
| 1778007303 | 25° C | 45% | 1007.5 hPa | 0 mm | - | 602 W/m² | - |
| 1778007003 | 25° C | 46% | 1007.9 hPa | 0 mm | - | 606 W/m² | - |
| 1778006703 | 25° C | 45% | 1007.5 hPa | 0 mm | - | 596 W/m² | - |
| 1778006403 | 25.56° C | 44% | 1007.5 hPa | 0 mm | - | 622 W/m² | - |
* Rain latest hour (hover to see other rain measurements)
** Current wind speed in m/s (hover to see current wind gust speed)